Time;durP1;ratioP1;P1;durP2;ratioP2;P2;SDS_P1;SDS_P2;PMS_P1;PMS_P2;Temp;Humidity;BMP_temperature;BMP_pressure;BME280_temperature;BME280_humidity;BME280_pressure;Samples;Min_cycle;Max_cycle;Signal;HPM_P1;HPM_P2
2022/03/03 00:01:31;;;;;;;26.47;16.97;;;;;;;3.24;nan;-23906.72;4992104;28;20188;-72
2022/03/03 00:03:57;;;;;;;25.97;16.83;;;;;;;3.47;nan;-23913.13;4992596;28;20222;-71
2022/03/03 00:06:22;;;;;;;27.80;17.17;;;;;;;3.35;nan;-23909.69;4990917;28;20176;-71
2022/03/03 00:08:48;;;;;;;26.50;17.07;;;;;;;3.77;nan;-23921.53;4991743;28;20644;-71
2022/03/03 00:11:13;;;;;;;25.63;16.73;;;;;;;3.78;nan;-23921.81;5023179;28;20181;-70
2022/03/03 00:13:38;;;;;;;25.13;17.43;;;;;;;3.67;nan;-23918.81;4992011;28;20260;-70
2022/03/03 00:16:04;;;;;;;27.40;16.83;;;;;;;3.76;nan;-23921.38;4991882;28;20181;-70
2022/03/03 00:18:30;;;;;;;26.60;16.47;;;;;;;3.65;nan;-23918.25;4992061;28;20177;-71
2022/03/03 00:20:55;;;;;;;25.43;16.53;;;;;;;3.74;nan;-23920.81;4992326;28;20591;-71
2022/03/03 00:23:20;;;;;;;24.60;16.23;;;;;;;3.71;nan;-23919.97;4992114;28;20176;-71
2022/03/03 00:25:46;;;;;;;26.27;16.37;;;;;;;3.75;nan;-23921.09;4993380;28;20173;-72
2022/03/03 00:28:11;;;;;;;24.07;15.93;;;;;;;3.84;nan;-23923.66;4993473;28;20227;-71
2022/03/03 00:30:37;;;;;;;24.70;16.10;;;;;;;3.75;nan;-23920.97;4989956;28;20216;-71
2022/03/03 00:33:03;;;;;;;26.37;15.83;;;;;;;3.39;nan;-23910.84;4976172;28;20252;-70
2022/03/03 00:35:29;;;;;;;25.63;15.97;;;;;;;3.26;nan;-23907.13;4986273;28;20185;-71
2022/03/03 00:37:54;;;;;;;25.50;16.37;;;;;;;3.52;nan;-23914.69;4995060;28;20212;-71
2022/03/03 00:40:20;;;;;;;22.43;15.47;;;;;;;3.34;nan;-23909.41;4994933;28;20291;-71
2022/03/03 00:42:45;;;;;;;23.40;15.30;;;;;;;3.29;nan;-23908.00;4995160;28;20192;-72
2022/03/03 00:45:10;;;;;;;26.00;15.63;;;;;;;3.54;nan;-23915.25;4995483;28;20176;-70
2022/03/03 00:47:36;;;;;;;26.73;15.93;;;;;;;3.74;nan;-23920.69;4994800;28;20173;-70
2022/03/03 00:50:02;;;;;;;29.07;16.07;;;;;;;3.14;nan;-23903.84;4995073;28;20526;-70
2022/03/03 00:52:27;;;;;;;24.43;15.90;;;;;;;3.29;nan;-23908.00;4995074;28;20635;-70
2022/03/03 00:54:53;;;;;;;23.93;15.10;;;;;;;3.61;nan;-23916.97;4995044;28;20169;-70
2022/03/03 00:57:18;;;;;;;25.10;15.53;;;;;;;3.53;nan;-23914.84;4994507;28;20187;-70
2022/03/03 00:59:44;;;;;;;24.63;14.77;;;;;;;3.20;nan;-23905.56;4994914;28;20211;-70
2022/03/03 01:02:09;;;;;;;22.50;14.77;;;;;;;3.65;nan;-23918.25;4994173;28;20226;-71
2022/03/03 01:04:34;;;;;;;24.43;15.20;;;;;;;3.38;nan;-23910.69;4994435;28;20274;-70
2022/03/03 01:07:00;;;;;;;22.23;14.43;;;;;;;3.57;nan;-23915.97;4986454;28;20192;-70
2022/03/03 01:09:25;;;;;;;26.23;17.13;;;;;;;3.26;nan;-23907.28;4975136;28;20177;-70
2022/03/03 01:11:50;;;;;;;23.73;14.67;;;;;;;3.14;nan;-23903.84;4988149;28;20184;-71
2022/03/03 01:14:21;;;;;;;25.17;14.87;;;;;;;3.42;nan;-23911.69;4994636;28;20169;-71
2022/03/03 01:16:48;;;;;;;21.47;14.17;;;;;;;3.72;nan;-23920.25;4994839;28;20168;-69
2022/03/03 01:19:13;;;;;;;22.20;13.60;;;;;;;3.70;nan;-23919.69;4994693;28;20185;-70
2022/03/03 01:21:39;;;;;;;22.20;14.13;;;;;;;3.72;nan;-23920.25;4994406;28;20231;-71
2022/03/03 01:24:05;;;;;;;20.77;13.90;;;;;;;3.75;nan;-23920.97;4994702;28;20203;-70
2022/03/03 01:26:30;;;;;;;23.93;14.27;;;;;;;3.10;nan;-23902.72;4994257;28;20169;-71
2022/03/03 01:28:55;;;;;;;21.77;13.93;;;;;;;3.60;nan;-23916.69;4994595;28;20191;-70
2022/03/03 01:31:21;;;;;;;20.60;13.63;;;;;;;3.56;nan;-23915.81;4994586;28;20663;-70
2022/03/03 01:33:46;;;;;;;21.57;13.43;;;;;;;3.66;nan;-23918.53;4994139;28;20251;-72
2022/03/03 01:36:11;;;;;;;21.03;12.90;;;;;;;3.33;nan;-23909.28;4993672;28;20195;-71
2022/03/03 01:38:37;;;;;;;20.47;13.50;;;;;;;3.32;nan;-23908.84;4993050;28;20180;-70
2022/03/03 01:41:02;;;;;;;23.60;13.80;;;;;;;3.35;nan;-23909.84;4993572;28;20188;-72
2022/03/03 01:43:28;;;;;;;20.80;13.80;;;;;;;3.76;nan;-23921.25;4997089;28;20193;-69
2022/03/03 01:45:53;;;;;;;22.33;12.37;;;;;;;3.30;nan;-23908.41;4990275;28;20694;-70
2022/03/03 01:48:19;;;;;;;20.53;13.63;;;;;;;3.40;nan;-23911.28;4992662;28;20239;-71
2022/03/03 01:50:45;;;;;;;20.43;13.87;;;;;;;3.80;nan;-23922.38;4992756;28;20188;-71
2022/03/03 01:53:11;;;;;;;23.77;14.17;;;;;;;3.54;nan;-23915.25;4992368;28;20325;-71
2022/03/03 01:55:36;;;;;;;36.13;14.10;;;;;;;3.63;nan;-23917.53;4992348;28;20635;-72
2022/03/03 01:58:04;;;;;;;19.17;13.10;;;;;;;3.63;nan;-23917.53;4991760;28;20188;-71
2022/03/03 02:00:30;;;;;;;20.53;13.57;;;;;;;3.63;nan;-23917.69;4992437;28;20207;-71
2022/03/03 02:02:55;;;;;;;21.77;13.87;;;;;;;3.52;nan;-23914.53;4991457;28;20225;-70
2022/03/03 02:05:21;;;;;;;21.47;12.83;;;;;;;3.75;nan;-23920.97;4991660;28;20181;-71
2022/03/03 02:07:46;;;;;;;21.73;13.73;;;;;;;3.49;nan;-23913.84;4991760;28;20219;-71
2022/03/03 02:10:12;;;;;;;20.30;13.30;;;;;;;3.48;nan;-23913.41;4992163;28;20180;-71
2022/03/03 02:12:38;;;;;;;22.07;13.70;;;;;;;3.02;nan;-23900.44;4992874;28;20280;-71
2022/03/03 02:15:05;;;;;;;25.93;13.97;;;;;;;3.21;nan;-23905.84;4991513;28;20188;-71
2022/03/03 02:17:30;;;;;;;24.47;14.03;;;;;;;3.16;nan;-23904.44;4991740;28;20184;-71
2022/03/03 02:19:56;;;;;;;22.30;13.40;;;;;;;3.26;nan;-23907.28;4991125;28;20216;-70
2022/03/03 02:22:21;;;;;;;24.30;14.07;;;;;;;3.39;nan;-23910.84;4992297;28;20181;-70
2022/03/03 02:24:47;;;;;;;20.90;13.43;;;;;;;3.08;nan;-23902.28;4990439;28;20180;-70
2022/03/03 02:27:12;;;;;;;20.43;13.40;;;;;;;3.47;nan;-23913.13;4991529;28;20714;-70
2022/03/03 02:29:38;;;;;;;23.27;14.10;;;;;;;3.22;nan;-23906.13;4991810;28;20746;-70
2022/03/03 02:32:05;;;;;;;23.13;13.57;;;;;;;3.30;nan;-23908.41;4990589;28;20222;-70
2022/03/03 02:34:31;;;;;;;22.37;14.13;;;;;;;2.98;nan;-23899.28;4991262;28;20184;-69
2022/03/03 02:36:56;;;;;;;22.33;13.83;;;;;;;2.83;nan;-23895.16;4991482;28;20650;-71
2022/03/03 02:39:22;;;;;;;21.43;13.83;;;;;;;2.96;nan;-23898.88;4990661;28;20207;-71
2022/03/03 02:41:47;;;;;;;21.33;13.73;;;;;;;3.39;nan;-23910.84;4990800;28;20650;-72
2022/03/03 02:44:13;;;;;;;21.90;14.07;;;;;;;3.16;nan;-23904.44;4990569;28;20910;-71
2022/03/03 02:46:39;;;;;;;20.53;13.67;;;;;;;2.99;nan;-23899.56;4991118;28;20200;-71
2022/03/03 02:49:05;;;;;;;21.37;14.23;;;;;;;3.41;nan;-23911.56;4989662;28;20282;-71
2022/03/03 02:51:30;;;;;;;25.87;14.43;;;;;;;3.32;nan;-23909.00;4990397;28;20596;-71
2022/03/03 02:53:56;;;;;;;25.83;14.10;;;;;;;2.98;nan;-23899.28;4990459;28;20188;-71
2022/03/03 02:56:21;;;;;;;21.60;14.27;;;;;;;3.34;nan;-23909.56;4991769;28;20689;-71
2022/03/03 02:58:47;;;;;;;20.07;13.63;;;;;;;3.10;nan;-23902.84;4990952;28;20185;-70
2022/03/03 03:01:13;;;;;;;21.00;14.80;;;;;;;2.76;nan;-23893.00;4990667;28;20184;-71
2022/03/03 03:03:39;;;;;;;21.70;14.00;;;;;;;2.97;nan;-23899.16;4991205;28;20688;-71
2022/03/03 03:06:04;;;;;;;21.50;14.20;;;;;;;2.97;nan;-23899.00;4989915;28;20203;-71
2022/03/03 03:08:30;;;;;;;23.30;13.43;;;;;;;3.41;nan;-23911.41;4990734;28;20219;-71
2022/03/03 03:10:55;;;;;;;23.40;14.40;;;;;;;3.23;nan;-23906.28;4989363;28;20199;-71
2022/03/03 03:13:21;;;;;;;21.20;13.93;;;;;;;3.05;nan;-23901.44;4991021;28;20644;-71
2022/03/03 03:15:46;;;;;;;22.93;14.70;;;;;;;2.71;nan;-23891.72;4990972;28;20197;-71
2022/03/03 03:18:14;;;;;;;22.77;14.03;;;;;;;2.85;nan;-23895.72;4990407;28;20188;-70
2022/03/03 03:20:41;;;;;;;22.27;15.20;;;;;;;3.30;nan;-23908.41;4990255;28;20218;-69
2022/03/03 03:23:12;;;;;;;21.87;14.10;;;;;;;3.25;nan;-23907.00;4989399;28;20189;-69
2022/03/03 03:25:39;;;;;;;21.77;13.27;;;;;;;3.00;nan;-23900.00;4990443;28;20242;-70
2022/03/03 03:28:05;;;;;;;23.97;13.73;;;;;;;3.14;nan;-23903.72;4989815;28;20184;-71
2022/03/03 03:30:32;;;;;;;24.83;13.57;;;;;;;3.12;nan;-23903.28;4991024;28;20229;-71
2022/03/03 03:32:57;;;;;;;23.27;13.87;;;;;;;3.16;nan;-23904.44;4989377;28;20291;-69
2022/03/03 03:35:23;;;;;;;21.13;13.47;;;;;;;2.61;nan;-23889.03;4990662;28;20192;-70
2022/03/03 03:37:49;;;;;;;22.87;14.27;;;;;;;3.09;nan;-23902.56;4991785;28;20191;-71
2022/03/03 03:40:16;;;;;;;21.13;13.50;;;;;;;2.98;nan;-23899.44;4990337;28;20311;-71
2022/03/03 03:42:41;;;;;;;22.17;12.77;;;;;;;2.77;nan;-23893.31;4990707;28;20192;-70
2022/03/03 03:45:08;;;;;;;22.07;13.77;;;;;;;2.65;nan;-23890.00;4989405;28;20187;-71
2022/03/03 03:47:33;;;;;;;21.10;13.13;;;;;;;2.85;nan;-23895.59;4990766;28;20183;-70
2022/03/03 03:50:02;;;;;;;19.80;12.20;;;;;;;3.16;nan;-23904.44;4990281;28;20190;-70
2022/03/03 03:52:31;;;;;;;17.90;11.77;;;;;;;2.88;nan;-23896.44;4990682;28;20266;-70
2022/03/03 03:54:58;;;;;;;18.73;12.30;;;;;;;3.07;nan;-23901.84;4989793;28;20219;-69
2022/03/03 03:57:23;;;;;;;18.43;12.20;;;;;;;2.67;nan;-23890.72;5003506;28;20278;-70
2022/03/03 03:59:49;;;;;;;21.80;13.27;;;;;;;3.33;nan;-23909.28;4991608;28;20341;-70
2022/03/03 04:02:14;;;;;;;19.90;12.63;;;;;;;2.84;nan;-23895.28;4994428;28;20225;-70
2022/03/03 04:04:39;;;;;;;21.17;13.27;;;;;;;2.80;nan;-23894.16;4993495;28;20185;-71
2022/03/03 04:07:05;;;;;;;23.43;13.20;;;;;;;2.75;nan;-23892.72;4994565;28;20195;-70
2022/03/03 04:09:31;;;;;;;21.27;13.23;;;;;;;2.79;nan;-23893.88;4995125;28;20194;-70
2022/03/03 04:11:56;;;;;;;19.03;12.73;;;;;;;2.85;nan;-23895.59;4994184;28;20186;-71
2022/03/03 04:14:21;;;;;;;20.90;13.13;;;;;;;3.14;nan;-23903.72;4994706;28;20270;-70
2022/03/03 04:16:47;;;;;;;19.00;12.30;;;;;;;3.21;nan;-23905.72;4994424;28;20222;-70
2022/03/03 04:19:12;;;;;;;21.10;13.30;;;;;;;3.22;nan;-23906.13;4993176;28;20292;-70
2022/03/03 04:21:38;;;;;;;19.80;13.13;;;;;;;2.70;nan;-23891.44;4994617;28;20222;-70
2022/03/03 04:24:05;;;;;;;19.57;12.77;;;;;;;3.42;nan;-23911.69;4993558;28;20212;-70
2022/03/03 04:26:30;;;;;;;21.00;13.47;;;;;;;2.96;nan;-23898.72;4994028;28;20343;-71
2022/03/03 04:28:55;;;;;;;22.67;13.43;;;;;;;3.16;nan;-23904.44;4994043;28;20184;-71
2022/03/03 04:31:21;;;;;;;20.90;12.97;;;;;;;3.44;nan;-23912.41;4993700;28;20189;-71
2022/03/03 04:33:46;;;;;;;21.73;14.50;;;;;;;3.32;nan;-23909.00;4994321;28;20648;-71
2022/03/03 04:36:12;;;;;;;20.83;13.53;;;;;;;2.29;nan;-23879.88;4993283;28;20207;-71
2022/03/03 04:38:37;;;;;;;24.37;13.43;;;;;;;3.06;nan;-23901.72;4993907;28;20177;-71
2022/03/03 04:41:03;;;;;;;21.70;14.13;;;;;;;2.82;nan;-23894.88;4992627;28;20196;-71
2022/03/03 04:43:28;;;;;;;20.93;13.60;;;;;;;3.37;nan;-23910.28;4993790;28;20188;-71
2022/03/03 04:45:54;;;;;;;22.77;13.77;;;;;;;3.60;nan;-23916.69;4992450;28;20191;-70
2022/03/03 04:48:19;;;;;;;22.10;14.30;;;;;;;3.12;nan;-23903.28;4992270;28;20193;-71
2022/03/03 04:50:45;;;;;;;22.07;14.13;;;;;;;3.38;nan;-23910.69;4994123;28;20215;-71
2022/03/03 04:53:10;;;;;;;22.47;14.90;;;;;;;3.24;nan;-23906.56;4992835;28;20227;-70
2022/03/03 04:55:36;;;;;;;21.87;14.40;;;;;;;3.54;nan;-23915.13;4993304;28;20220;-71
2022/03/03 04:58:02;;;;;;;19.90;14.40;;;;;;;3.33;nan;-23909.28;4992686;28;20195;-71
2022/03/03 05:00:27;;;;;;;21.27;14.07;;;;;;;3.54;nan;-23915.13;4993333;28;20262;-71
2022/03/03 05:02:52;;;;;;;24.33;14.30;;;;;;;3.42;nan;-23911.69;4992906;28;20648;-71
2022/03/03 05:05:18;;;;;;;25.70;14.53;;;;;;;3.47;nan;-23913.25;4992099;28;20701;-70
2022/03/03 05:07:43;;;;;;;24.30;14.87;;;;;;;3.47;nan;-23913.25;4993277;28;20195;-70
2022/03/03 05:10:09;;;;;;;22.43;14.23;;;;;;;2.92;nan;-23897.56;4992691;28;20188;-70
2022/03/03 05:12:35;;;;;;;22.97;14.00;;;;;;;3.20;nan;-23905.41;4989949;28;20651;-70
2022/03/03 05:15:00;;;;;;;20.37;13.10;;;;;;;3.43;nan;-23912.13;4990976;28;20202;-70
2022/03/03 05:17:25;;;;;;;21.10;13.50;;;;;;;3.23;nan;-23906.28;4993677;28;20239;-71
2022/03/03 05:19:51;;;;;;;22.10;13.37;;;;;;;3.47;nan;-23913.13;4991498;28;20235;-70
2022/03/03 05:22:17;;;;;;;20.97;14.10;;;;;;;3.42;nan;-23911.69;4992405;28;20191;-71
2022/03/03 05:24:49;;;;;;;21.97;14.03;;;;;;;3.27;nan;-23907.56;4991380;28;20188;-71
2022/03/03 05:27:15;;;;;;;22.07;14.00;;;;;;;3.14;nan;-23903.72;4991700;28;20188;-70
2022/03/03 05:29:41;;;;;;;20.83;14.33;;;;;;;3.49;nan;-23913.69;4992752;28;20200;-70
2022/03/03 05:32:06;;;;;;;24.10;13.83;;;;;;;3.07;nan;-23901.84;4992168;28;20192;-70
2022/03/03 05:34:33;;;;;;;20.70;13.63;;;;;;;3.10;nan;-23902.72;4992582;28;20184;-72
2022/03/03 05:37:00;;;;;;;21.63;14.53;;;;;;;3.23;nan;-23906.28;4993080;28;20223;-71
2022/03/03 05:39:28;;;;;;;22.13;14.57;;;;;;;3.30;nan;-23908.41;4985518;28;20208;-71
2022/03/03 05:41:56;;;;;;;25.40;14.77;;;;;;;3.26;nan;-23907.28;4988862;28;20239;-72
2022/03/03 05:44:22;;;;;;;23.10;14.50;;;;;;;3.74;nan;-23920.69;4991991;28;20705;-73
2022/03/03 05:46:48;;;;;;;24.07;14.73;;;;;;;3.70;nan;-23919.53;4992340;28;20187;-72
2022/03/03 05:49:15;;;;;;;22.83;15.30;;;;;;;3.70;nan;-23919.53;4991639;28;20195;-72
2022/03/03 05:51:41;;;;;;;24.43;14.97;;;;;;;3.47;nan;-23913.13;4993162;28;20258;-72
2022/03/03 05:54:07;;;;;;;22.37;14.70;;;;;;;3.95;nan;-23926.66;4992364;28;20560;-72
2022/03/03 05:56:38;;;;;;;21.70;14.10;;;;;;;3.95;nan;-23926.81;4991812;28;20203;-71
2022/03/03 05:59:06;;;;;;;20.83;13.33;;;;;;;3.86;nan;-23924.09;4992173;28;20196;-72
2022/03/03 06:01:40;;;;;;;20.60;13.50;;;;;;;4.00;nan;-23928.09;4990709;28;20177;-71
2022/03/03 06:04:07;;;;;;;19.90;13.50;;;;;;;4.12;nan;-23931.50;4990299;28;20224;-71
2022/03/03 06:06:36;;;;;;;21.03;13.50;;;;;;;4.15;nan;-23932.34;4991199;28;20181;-72
2022/03/03 06:09:10;;;;;;;20.77;13.47;;;;;;;4.21;nan;-23934.06;4991211;28;20287;-72
2022/03/03 06:12:06;;;;;;;22.00;12.57;;;;;;;4.29;nan;-23936.34;4989640;28;20319;-73
2022/03/03 06:14:52;;;;;;;19.43;12.77;;;;;;;4.07;nan;-23930.06;4990479;28;20629;-72
2022/03/03 06:17:21;;;;;;;20.00;12.53;;;;;;;4.22;nan;-23934.34;4990886;28;20172;-73
2022/03/03 06:19:49;;;;;;;20.67;12.77;;;;;;;4.27;nan;-23935.63;4991599;28;20208;-74
2022/03/03 06:22:15;;;;;;;19.63;12.43;;;;;;;4.45;nan;-23940.91;4991434;28;20181;-71
2022/03/03 06:24:41;;;;;;;20.50;12.83;;;;;;;4.62;nan;-23945.47;4998270;28;20185;-72
2022/03/03 06:27:08;;;;;;;23.33;14.80;;;;;;;4.44;nan;-23940.63;4990953;28;20642;-71
2022/03/03 06:29:34;;;;;;;22.80;13.90;;;;;;;4.39;nan;-23939.19;4992018;28;20271;-73
2022/03/03 06:32:01;;;;;;;22.90;15.20;;;;;;;4.62;nan;-23945.59;4990553;28;20567;-72
2022/03/03 06:34:26;;;;;;;23.73;15.30;;;;;;;4.89;nan;-23953.13;4991178;28;20181;-70
2022/03/03 06:36:52;;;;;;;25.03;16.03;;;;;;;4.53;nan;-23943.03;4990897;28;20193;-69
2022/03/03 06:39:17;;;;;;;28.10;16.27;;;;;;;4.61;nan;-23945.31;4990695;28;20240;-71
2022/03/03 06:41:44;;;;;;;22.83;15.27;;;;;;;5.26;nan;-23963.53;4991160;28;20181;-71
2022/03/03 06:44:10;;;;;;;24.27;15.60;;;;;;;4.97;nan;-23955.41;4989847;28;20234;-71
2022/03/03 06:46:35;;;;;;;27.23;16.53;;;;;;;5.37;nan;-23966.66;4990212;28;20330;-70
2022/03/03 06:49:01;;;;;;;25.40;16.17;;;;;;;5.39;nan;-23967.22;4990707;28;20363;-70
2022/03/03 06:51:33;;;;;;;23.90;15.83;;;;;;;5.36;nan;-23966.38;4990948;28;20184;-69
2022/03/03 06:54:02;;;;;;;28.07;17.00;;;;;;;5.18;nan;-23961.38;4987779;28;20188;-70
2022/03/03 06:56:30;;;;;;;27.17;17.43;;;;;;;5.20;nan;-23961.97;4990672;28;20203;-72
2022/03/03 06:58:59;;;;;;;25.17;17.10;;;;;;;5.56;nan;-23971.91;4991196;28;20192;-71
2022/03/03 07:01:27;;;;;;;29.37;16.47;;;;;;;5.51;nan;-23970.47;4990408;28;20187;-70
2022/03/03 07:03:53;;;;;;;24.53;16.80;;;;;;;5.63;nan;-23973.91;4990417;28;20195;-71
2022/03/03 07:06:18;;;;;;;26.17;17.20;;;;;;;5.73;nan;-23976.88;4990552;28;20188;-69
2022/03/03 07:08:46;;;;;;;27.27;17.43;;;;;;;5.60;nan;-23973.03;4991466;28;20177;-71
2022/03/03 07:11:11;;;;;;;26.97;17.37;;;;;;;5.83;nan;-23979.44;4989496;28;20195;-71
2022/03/03 07:13:38;;;;;;;27.07;16.73;;;;;;;5.66;nan;-23974.75;4991322;28;20188;-70
2022/03/03 07:16:36;;;;;;;28.57;17.83;;;;;;;5.87;nan;-23980.59;4990211;28;20191;-71
2022/03/03 07:19:03;;;;;;;29.60;16.83;;;;;;;5.95;nan;-23983.00;4989648;28;20213;-71
2022/03/03 07:21:50;;;;;;;27.50;17.03;;;;;;;6.20;nan;-23989.97;4987745;28;20180;-71
2022/03/03 07:24:26;;;;;;;26.67;15.97;;;;;;;5.94;nan;-23982.72;4982934;28;20215;-71
2022/03/03 07:26:57;;;;;;;28.17;16.47;;;;;;;5.60;nan;-23973.03;4997769;28;20621;-71
2022/03/03 07:29:26;;;;;;;24.43;16.13;;;;;;;6.06;nan;-23986.13;4984531;28;20196;-71
2022/03/03 07:31:56;;;;;;;24.30;16.47;;;;;;;6.13;nan;-23988.13;4983734;28;20191;-70
2022/03/03 07:34:28;;;;;;;35.33;15.60;;;;;;;5.72;nan;-23976.59;4983540;28;20189;-69
2022/03/03 07:36:57;;;;;;;33.93;15.00;;;;;;;6.18;nan;-23989.53;4983912;28;20667;-72
2022/03/03 07:39:30;;;;;;;25.00;15.23;;;;;;;6.44;nan;-23996.78;4975484;28;20858;-71
2022/03/03 07:41:58;;;;;;;25.47;13.80;;;;;;;6.41;nan;-23995.91;4984619;28;20176;-70
2022/03/03 07:44:24;;;;;;;22.37;15.20;;;;;;;6.90;nan;-24009.69;4984157;28;20184;-72
2022/03/03 07:46:50;;;;;;;24.07;14.80;;;;;;;6.93;nan;-24010.53;4985410;28;20185;-70
2022/03/03 07:49:21;;;;;;;23.50;14.43;;;;;;;6.82;nan;-24007.41;4983473;28;20200;-71
2022/03/03 07:51:49;;;;;;;21.80;14.10;;;;;;;7.02;nan;-24012.94;4984373;28;20238;-70
2022/03/03 07:54:15;;;;;;;24.50;14.67;;;;;;;7.06;nan;-24014.22;4984115;28;20180;-70
2022/03/03 07:56:47;;;;;;;23.80;14.43;;;;;;;6.86;nan;-24008.41;4984649;28;20280;-69
2022/03/03 07:59:16;;;;;;;22.50;14.03;;;;;;;6.53;nan;-23999.19;4984458;28;20270;-71
2022/03/03 08:01:45;;;;;;;25.43;14.60;;;;;;;6.62;nan;-24001.75;4975726;28;20244;-71
2022/03/03 08:04:15;;;;;;;23.80;14.47;;;;;;;6.65;nan;-24002.72;4984488;28;20194;-72
2022/03/03 08:06:43;;;;;;;25.83;14.40;;;;;;;6.95;nan;-24010.97;4983443;28;20181;-71
2022/03/03 08:09:09;;;;;;;21.73;14.20;;;;;;;6.80;nan;-24006.72;4988382;28;20188;-72
2022/03/03 08:11:40;;;;;;;23.47;14.33;;;;;;;6.67;nan;-24003.16;4990515;28;20203;-70
2022/03/03 08:14:06;;;;;;;25.00;15.20;;;;;;;6.82;nan;-24007.41;4986823;28;20188;-75
2022/03/03 08:16:35;;;;;;;25.80;14.67;;;;;;;6.91;nan;-24009.81;4990416;28;20192;-71
2022/03/03 08:19:02;;;;;;;23.63;15.53;;;;;;;6.97;nan;-24011.66;4989135;28;20230;-70
2022/03/03 08:21:30;;;;;;;23.60;15.57;;;;;;;7.63;nan;-24029.97;4990368;28;20180;-74
2022/03/03 08:24:00;;;;;;;20.60;14.13;;;;;;;7.29;nan;-24020.47;4991287;28;20181;-71
2022/03/03 08:26:26;;;;;;;26.87;15.03;;;;;;;7.43;nan;-24024.56;4972748;28;20181;-75
2022/03/03 08:28:52;;;;;;;25.63;13.87;;;;;;;6.98;nan;-24011.81;4973661;28;20176;-72
2022/03/03 08:31:27;;;;;;;22.20;14.10;;;;;;;7.16;nan;-24016.78;4990651;28;20545;-72
2022/03/03 08:33:58;;;;;;;22.60;14.90;;;;;;;6.82;nan;-24007.28;4991282;28;20171;-71
2022/03/03 08:36:27;;;;;;;21.53;14.47;;;;;;;6.76;nan;-24005.72;4991191;28;20176;-72
2022/03/03 08:38:56;;;;;;;22.53;14.23;;;;;;;6.61;nan;-24001.47;4991357;28;20165;-71
2022/03/03 08:41:23;;;;;;;23.37;15.23;;;;;;;6.08;nan;-23986.69;4991186;28;20165;-71
2022/03/03 08:43:51;;;;;;;22.90;14.57;;;;;;;6.66;nan;-24002.88;4991194;28;20231;-72
2022/03/03 08:46:23;;;;;;;23.00;14.90;;;;;;;6.78;nan;-24006.13;4991080;28;20184;-72
2022/03/03 08:48:49;;;;;;;24.80;15.30;;;;;;;6.90;nan;-24009.69;4995010;28;20186;-72
2022/03/03 08:51:16;;;;;;;24.17;14.30;;;;;;;6.65;nan;-24002.72;4993459;28;20252;-70
2022/03/03 08:53:41;;;;;;;24.07;14.80;;;;;;;7.24;nan;-24019.03;4994335;28;20185;-70
2022/03/03 08:56:08;;;;;;;23.30;14.33;;;;;;;7.18;nan;-24017.47;4979517;28;20240;-71
2022/03/03 08:58:34;;;;;;;21.83;15.10;;;;;;;7.00;nan;-24012.38;4975203;28;20237;-70
2022/03/03 09:01:00;;;;;;;23.90;16.10;;;;;;;7.55;nan;-24027.84;4994463;28;20197;-71
2022/03/03 09:03:26;;;;;;;23.50;15.87;;;;;;;7.52;nan;-24026.97;4994094;28;20671;-72
2022/03/03 09:05:51;;;;;;;27.90;15.17;;;;;;;7.59;nan;-24028.97;4994133;28;20677;-71
2022/03/03 09:08:17;;;;;;;20.47;12.67;;;;;;;7.74;nan;-24033.22;4994239;28;20204;-72
2022/03/03 09:10:43;;;;;;;18.23;11.73;;;;;;;7.79;nan;-24034.50;4994658;28;20177;-72
2022/03/03 09:13:09;;;;;;;16.53;10.67;;;;;;;8.13;nan;-24044.00;4993661;28;20176;-71
2022/03/03 09:15:35;;;;;;;17.80;11.30;;;;;;;7.99;nan;-24040.31;4994313;28;20524;-70
2022/03/03 09:18:01;;;;;;;18.17;11.00;;;;;;;7.85;nan;-24036.19;4993980;28;20181;-72
2022/03/03 09:20:27;;;;;;;14.70;10.03;;;;;;;7.67;nan;-24031.25;4994086;28;20204;-73
2022/03/03 09:22:52;;;;;;;16.33;10.60;;;;;;;8.14;nan;-24044.41;4994117;28;20244;-72
2022/03/03 09:25:18;;;;;;;19.23;11.27;;;;;;;8.07;nan;-24042.44;4992855;28;20173;-72
2022/03/03 09:27:43;;;;;;;17.37;10.63;;;;;;;8.37;nan;-24050.78;4988584;28;20188;-71
2022/03/03 09:30:10;;;;;;;16.17;10.70;;;;;;;8.13;nan;-24044.13;4990030;28;20202;-71
2022/03/03 09:32:37;;;;;;;16.43;10.20;;;;;;;7.83;nan;-24035.63;4990472;28;20228;-71
2022/03/03 09:35:04;;;;;;;16.00;10.53;;;;;;;8.31;nan;-24049.09;4989775;28;20208;-70
2022/03/03 09:37:29;;;;;;;19.00;10.07;;;;;;;8.40;nan;-24051.63;4991969;28;20296;-72
2022/03/03 09:39:55;;;;;;;15.67;10.33;;;;;;;7.98;nan;-24040.03;4992358;28;20200;-71
2022/03/03 09:42:20;;;;;;;17.23;10.70;;;;;;;8.41;nan;-24051.91;4993362;28;20188;-71
2022/03/03 09:44:46;;;;;;;24.40;10.50;;;;;;;8.43;nan;-24052.63;4976389;28;20205;-70
2022/03/03 09:47:12;;;;;;;22.30;11.00;;;;;;;8.30;nan;-24048.81;4976923;28;20177;-71
2022/03/03 09:49:40;;;;;;;14.93;9.70;;;;;;;7.92;nan;-24038.19;4994436;28;20188;-71
2022/03/03 09:52:14;;;;;;;14.70;9.60;;;;;;;7.92;nan;-24038.19;4993477;28;20173;-72
2022/03/03 09:54:41;;;;;;;15.93;8.93;;;;;;;8.26;nan;-24047.81;4991727;28;20199;-70
2022/03/03 09:57:07;;;;;;;16.87;9.63;;;;;;;8.23;nan;-24046.97;4993078;28;20172;-70
2022/03/03 09:59:32;;;;;;;16.40;9.47;;;;;;;7.87;nan;-24036.75;4993519;28;20636;-70
2022/03/03 10:02:06;;;;;;;18.83;9.57;;;;;;;8.48;nan;-24053.75;4994065;28;20216;-71
2022/03/03 10:04:31;;;;;;;14.33;9.50;;;;;;;8.76;nan;-24061.81;4993742;28;20181;-68
2022/03/03 10:07:02;;;;;;;14.97;9.13;;;;;;;8.55;nan;-24055.88;4992127;28;20705;-71
2022/03/03 10:09:28;;;;;;;14.23;8.87;;;;;;;8.95;nan;-24066.91;4991759;28;20176;-71
2022/03/03 10:12:02;;;;;;;16.33;9.20;;;;;;;9.01;nan;-24068.75;4990879;28;20193;-71
2022/03/03 10:14:29;;;;;;;15.70;9.47;;;;;;;9.52;nan;-24082.91;4991455;28;20231;-71
2022/03/03 10:16:54;;;;;;;12.30;8.53;;;;;;;9.08;nan;-24070.72;4992335;28;20204;-69
2022/03/03 10:19:20;;;;;;;15.53;9.80;;;;;;;8.98;nan;-24067.75;4993175;28;20212;-74
2022/03/03 10:21:45;;;;;;;16.67;9.63;;;;;;;9.34;nan;-24077.94;4991575;28;20280;-72
2022/03/03 10:24:30;;;;;;;21.37;10.53;;;;;;;9.02;nan;-24068.91;4991437;28;20185;-72
2022/03/03 10:27:07;;;;;;;16.60;9.83;;;;;;;9.26;nan;-24075.81;4990744;28;20196;-70
2022/03/03 10:29:34;;;;;;;18.70;9.63;;;;;;;9.80;nan;-24090.81;4988177;28;20192;-71
2022/03/03 10:32:02;;;;;;;12.60;9.37;;;;;;;8.90;nan;-24065.50;4989828;28;20652;-71
2022/03/03 10:34:32;;;;;;;18.57;10.00;;;;;;;9.19;nan;-24073.72;4990128;28;20229;-72
2022/03/03 10:37:07;;;;;;;18.07;9.80;;;;;;;9.13;nan;-24072.16;4991395;28;20195;-70
2022/03/03 10:39:55;;;;;;;14.77;10.00;;;;;;;8.85;nan;-24064.38;4987952;28;20682;-72
2022/03/03 10:42:23;;;;;;;14.30;9.50;;;;;;;8.64;nan;-24058.44;4992434;28;20189;-72
2022/03/03 10:44:50;;;;;;;13.93;10.20;;;;;;;9.43;nan;-24080.50;4990887;28;20184;-71
2022/03/03 10:47:17;;;;;;;15.00;10.47;;;;;;;9.72;nan;-24088.53;4991007;28;20173;-71
2022/03/03 10:49:46;;;;;;;15.80;9.97;;;;;;;9.23;nan;-24074.84;4991447;28;20189;-70
2022/03/03 10:52:20;;;;;;;15.30;8.23;;;;;;;9.35;nan;-24078.22;4990536;28;20180;-71
2022/03/03 10:54:56;;;;;;;16.03;9.40;;;;;;;8.71;nan;-24060.41;4989835;28;20250;-70
2022/03/03 10:57:42;;;;;;;16.73;10.80;;;;;;;8.83;nan;-24063.81;4989908;28;20199;-70
2022/03/03 11:00:26;;;;;;;16.23;9.97;;;;;;;8.71;nan;-24060.41;4991124;28;20207;-70
2022/03/03 11:02:54;;;;;;;17.33;9.10;;;;;;;8.93;nan;-24066.34;4989263;28;20232;-70
2022/03/03 11:05:22;;;;;;;14.13;9.13;;;;;;;9.05;nan;-24069.75;4989528;28;20184;-69
2022/03/03 11:07:49;;;;;;;16.13;9.03;;;;;;;8.67;nan;-24059.28;4990490;28;20582;-72
2022/03/03 11:10:17;;;;;;;15.70;9.10;;;;;;;9.70;nan;-24088.13;4990309;28;20664;-69
2022/03/03 11:12:44;;;;;;;13.33;9.00;;;;;;;9.00;nan;-24068.47;4990826;28;20192;-71
2022/03/03 11:15:11;;;;;;;12.73;8.83;;;;;;;9.01;nan;-24068.75;4990749;28;20187;-71
2022/03/03 11:17:37;;;;;;;14.03;9.13;;;;;;;9.40;nan;-24079.63;4991618;28;20584;-71
2022/03/03 11:20:04;;;;;;;14.23;9.20;;;;;;;9.38;nan;-24078.94;4985677;28;20584;-71
2022/03/03 11:22:31;;;;;;;15.10;10.20;;;;;;;9.49;nan;-24082.19;4990765;28;20189;-71
2022/03/03 11:25:00;;;;;;;15.97;9.60;;;;;;;9.57;nan;-24084.31;4988676;28;20189;-69
2022/03/03 11:27:37;;;;;;;14.67;9.20;;;;;;;9.36;nan;-24078.50;4990541;28;20215;-70
2022/03/03 11:30:15;;;;;;;15.87;9.20;;;;;;;9.16;nan;-24072.84;4990278;28;20679;-72
2022/03/03 11:32:42;;;;;;;13.17;8.97;;;;;;;8.62;nan;-24057.88;4976047;28;20185;-70
2022/03/03 11:35:10;;;;;;;14.00;9.63;;;;;;;9.13;nan;-24072.16;4990428;28;20176;-72